Time;durP1;ratioP1;P1;durP2;ratioP2;P2;SDS_P1;SDS_P2;PMS_P1;PMS_P2;Temp;Humidity;BMP_temperature;BMP_pressure;BME280_temperature;BME280_humidity;BME280_pressure;Samples;Min_cycle;Max_cycle;Signal;HPM_P1;HPM_P2
2023/02/01 00:00:17;;;;;;;4.70;3.22;;;;;;;;;;4958856;28;20087;-77
2023/02/01 00:02:44;;;;;;;3.90;3.00;;;;;;;;;;4958886;28;20065;-77
2023/02/01 00:05:11;;;;;;;5.78;2.90;;;;;;;;;;4958204;28;20070;-77
2023/02/01 00:07:38;;;;;;;3.60;2.95;;;;;;;;;;4974649;28;20141;-77
2023/02/01 00:10:06;;;;;;;3.60;2.72;;;;;;;;;;4974297;28;20503;-77
2023/02/01 00:12:33;;;;;;;3.42;2.83;;;;;;;;;;4974879;28;20056;-77
2023/02/01 00:14:59;;;;;;;4.38;2.88;;;;;;;;;;4977657;28;20791;-76
2023/02/01 00:17:26;;;;;;;4.85;2.85;;;;;;;;;;4961575;28;20054;-77
2023/02/01 00:19:53;;;;;;;4.63;3.30;;;;;;;;;;4978141;28;20060;-77
2023/02/01 00:22:20;;;;;;;3.95;2.97;;;;;;;;;;4994512;28;20129;-76
2023/02/01 00:24:47;;;;;;;5.93;3.30;;;;;;;;;;4977728;28;20046;-77
2023/02/01 00:27:17;;;;;;;4.13;2.65;;;;;;;;;;4993754;28;20058;-76
2023/02/01 00:29:44;;;;;;;4.28;2.78;;;;;;;;;;4962506;28;20050;-76
2023/02/01 00:32:11;;;;;;;3.22;2.70;;;;;;;;;;4977669;28;20064;-76
2023/02/01 00:34:38;;;;;;;4.55;2.65;;;;;;;;;;4978626;28;20088;-76
2023/02/01 00:37:05;;;;;;;3.55;2.55;;;;;;;;;;4978959;28;20158;-76
2023/02/01 00:39:32;;;;;;;4.53;2.80;;;;;;;;;;4977329;28;20041;-76
2023/02/01 00:41:59;;;;;;;2.75;2.30;;;;;;;;;;4977258;28;20060;-75
2023/02/01 00:44:27;;;;;;;4.15;2.28;;;;;;;;;;4977099;28;20053;-76
2023/02/01 00:46:53;;;;;;;2.75;2.42;;;;;;;;;;4977488;28;20053;-76
2023/02/01 00:49:21;;;;;;;4.75;2.75;;;;;;;;;;4993909;28;20110;-75
2023/02/01 00:51:48;;;;;;;3.00;2.38;;;;;;;;;;4993757;28;20058;-76
2023/02/01 00:54:15;;;;;;;3.67;2.28;;;;;;;;;;4993926;28;20053;-76
2023/02/01 00:56:42;;;;;;;3.85;2.30;;;;;;;;;;4981129;28;20054;-76
2023/02/01 00:59:12;;;;;;;2.88;2.20;;;;;;;;;;4961301;28;20060;-77
2023/02/01 01:01:39;;;;;;;3.20;2.20;;;;;;;;;;4961517;28;20054;-77
2023/02/01 01:04:06;;;;;;;3.15;2.08;;;;;;;;;;4961150;28;20054;-76
2023/02/01 01:06:33;;;;;;;2.97;2.33;;;;;;;;;;4977504;28;20060;-76
2023/02/01 01:09:02;;;;;;;2.88;1.95;;;;;;;;;;4992571;28;20053;-76
2023/02/01 01:11:30;;;;;;;2.33;1.98;;;;;;;;;;5013554;28;20306;-77
2023/02/01 01:13:58;;;;;;;2.95;2.22;;;;;;;;;;4998660;28;20132;-75
2023/02/01 01:16:26;;;;;;;3.30;2.17;;;;;;;;;;4998663;28;20068;-76
2023/02/01 01:18:54;;;;;;;2.10;1.90;;;;;;;;;;4996550;28;20136;-76
2023/02/01 01:21:21;;;;;;;3.97;2.22;;;;;;;;;;4996525;28;20050;-76
2023/02/01 01:23:48;;;;;;;2.80;2.42;;;;;;;;;;4995953;28;20067;-76
2023/02/01 01:26:20;;;;;;;2.75;2.10;;;;;;;;;;4996079;28;20050;-76
2023/02/01 01:28:47;;;;;;;2.63;2.10;;;;;;;;;;4996019;28;20128;-76
2023/02/01 01:31:16;;;;;;;2.30;1.90;;;;;;;;;;4997175;28;20775;-77
2023/02/01 01:33:43;;;;;;;2.60;2.00;;;;;;;;;;4996984;28;20501;-77
2023/02/01 01:36:11;;;;;;;2.60;2.25;;;;;;;;;;4996412;28;20057;-78
2023/02/01 01:38:41;;;;;;;2.65;1.63;;;;;;;;;;4992259;28;20141;-77
2023/02/01 01:41:12;;;;;;;2.90;2.53;;;;;;;;;;4945018;28;20061;-77
2023/02/01 01:43:58;;;;;;;2.38;2.10;;;;;;;;;;4961361;28;20061;-77
2023/02/01 01:46:28;;;;;;;3.13;1.40;;;;;;;;;;4976812;28;20050;-77
2023/02/01 01:49:14;;;;;;;2.78;2.33;;;;;;;;;;4961523;28;20058;-76
2023/02/01 01:51:49;;;;;;;2.13;1.70;;;;;;;;;;4973438;28;20054;-76
2023/02/01 01:54:21;;;;;;;2.00;1.70;;;;;;;;;;4964111;28;20141;-76
2023/02/01 01:56:51;;;;;;;2.65;1.70;;;;;;;;;;4987902;28;20061;-77
2023/02/01 01:59:19;;;;;;;2.70;1.45;;;;;;;;;;4995817;28;20429;-76
2023/02/01 02:01:46;;;;;;;1.50;1.40;;;;;;;;;;4982464;28;20073;-76
2023/02/01 02:04:13;;;;;;;2.17;1.50;;;;;;;;;;4979752;28;20050;-76
2023/02/01 02:07:14;;;;;;;1.95;1.60;;;;;;;;;;4979973;28;20058;-76
2023/02/01 02:09:42;;;;;;;2.00;1.80;;;;;;;;;;4980193;28;20058;-77
2023/02/01 02:12:25;;;;;;;1.48;1.33;;;;;;;;;;4984707;28;20582;-76
2023/02/01 02:14:52;;;;;;;1.60;1.30;;;;;;;;;;4979836;28;20046;-76
2023/02/01 02:17:27;;;;;;;1.52;1.38;;;;;;;;;;4979797;28;20045;-76
2023/02/01 02:20:26;;;;;;;1.50;1.40;;;;;;;;;;5013201;28;20046;-77
2023/02/01 02:23:08;;;;;;;1.80;1.45;;;;;;;;;;4967097;28;20079;-76
2023/02/01 02:25:58;;;;;;;1.60;1.45;;;;;;;;;;4995616;28;20060;-76
2023/02/01 02:28:56;;;;;;;1.95;1.30;;;;;;;;;;4979109;28;20132;-76
2023/02/01 02:31:50;;;;;;;2.00;1.33;;;;;;;;;;5013532;28;20067;-76
2023/02/01 02:35:09;;;;;;;1.67;1.58;;;;;;;;;;5016105;28;20077;-76
2023/02/01 02:37:39;;;;;;;1.80;1.70;;;;;;;;;;4971338;28;20050;-75
2023/02/01 02:40:11;;;;;;;2.22;1.88;;;;;;;;;;4995675;28;20065;-76
2023/02/01 02:48:20;;;;;;;2.10;1.90;;;;;;;;;;5011195;28;20509;-76
2023/02/01 03:05:23;;;;;;;1.73;1.58;;;;;;;;;;4939070;29;20443;-77
2023/02/01 03:11:05;;;;;;;1.92;1.65;;;;;;;;;;4985295;28;20074;-77
2023/02/01 03:13:55;;;;;;;2.58;1.80;;;;;;;;;;4971507;28;20065;-77
2023/02/01 03:16:35;;;;;;;2.05;1.73;;;;;;;;;;4955709;28;20050;-77
2023/02/01 03:19:14;;;;;;;1.90;1.70;;;;;;;;;;5066451;23;20057;-76
2023/02/01 03:21:49;;;;;;;4.05;1.83;;;;;;;;;;5033733;28;20128;-75
2023/02/01 03:24:19;;;;;;;2.58;1.90;;;;;;;;;;5018126;28;20057;-75
2023/02/01 03:26:54;;;;;;;3.28;1.75;;;;;;;;;;5017541;28;20060;-75
2023/02/01 03:29:24;;;;;;;2.20;1.77;;;;;;;;;;5036371;28;20464;-76
2023/02/01 03:31:51;;;;;;;1.90;1.70;;;;;;;;;;5013361;28;20410;-76
2023/02/01 03:34:18;;;;;;;2.20;2.00;;;;;;;;;;4980357;28;20103;-76
2023/02/01 03:36:45;;;;;;;2.17;1.92;;;;;;;;;;4997030;28;20049;-76
2023/02/01 03:39:24;;;;;;;2.75;1.95;;;;;;;;;;5018580;28;20049;-74
2023/02/01 03:41:53;;;;;;;2.55;1.67;;;;;;;;;;5016628;28;20490;-77
2023/02/01 03:44:24;;;;;;;2.38;1.95;;;;;;;;;;5016780;28;20067;-76
2023/02/01 03:46:53;;;;;;;2.78;2.05;;;;;;;;;;5050492;28;20088;-76
2023/02/01 03:49:26;;;;;;;2.45;1.60;;;;;;;;;;5028928;28;20596;-76
2023/02/01 03:51:53;;;;;;;4.07;1.80;;;;;;;;;;4997636;28;20398;-76
2023/02/01 03:54:20;;;;;;;2.10;1.85;;;;;;;;;;5012695;28;20153;-74
2023/02/01 03:56:47;;;;;;;2.92;1.67;;;;;;;;;;4997125;28;20045;-76
2023/02/01 03:59:14;;;;;;;1.98;1.70;;;;;;;;;;5001703;28;20049;-76
2023/02/01 04:01:40;;;;;;;2.72;1.98;;;;;;;;;;5016456;28;20057;-75
2023/02/01 04:04:09;;;;;;;3.42;2.00;;;;;;;;;;5032762;28;20063;-75
2023/02/01 04:06:36;;;;;;;2.20;1.48;;;;;;;;;;5016722;28;20056;-75
2023/02/01 04:09:02;;;;;;;3.42;2.30;;;;;;;;;;5015936;28;20049;-75
2023/02/01 04:11:29;;;;;;;2.63;1.75;;;;;;;;;;4999983;28;20057;-75
2023/02/01 04:13:56;;;;;;;1.98;1.83;;;;;;;;;;5034381;28;20049;-75
2023/02/01 04:16:23;;;;;;;3.35;1.80;;;;;;;;;;5000439;28;20053;-75
2023/02/01 04:18:49;;;;;;;2.53;2.00;;;;;;;;;;4999381;28;20102;-75
2023/02/01 04:21:16;;;;;;;2.28;2.05;;;;;;;;;;5032194;28;20053;-75
2023/02/01 04:23:43;;;;;;;2.42;1.88;;;;;;;;;;5032658;28;20056;-75
2023/02/01 04:26:09;;;;;;;2.60;1.95;;;;;;;;;;5016095;28;20044;-75
2023/02/01 04:28:36;;;;;;;2.60;2.00;;;;;;;;;;5024848;28;20437;-75
2023/02/01 04:31:03;;;;;;;2.50;1.80;;;;;;;;;;5015584;28;20056;-74
2023/02/01 04:33:30;;;;;;;2.38;1.85;;;;;;;;;;5015931;28;20387;-77
2023/02/01 04:35:57;;;;;;;1.88;1.70;;;;;;;;;;5032197;28;20052;-74
2023/02/01 04:38:23;;;;;;;1.98;1.67;;;;;;;;;;5011884;28;20445;-75
2023/02/01 04:40:50;;;;;;;2.60;1.85;;;;;;;;;;5012046;28;20068;-74
2023/02/01 04:43:17;;;;;;;2.85;2.20;;;;;;;;;;5012669;28;20052;-74
2023/02/01 04:45:51;;;;;;;3.08;2.58;;;;;;;;;;5012024;28;20413;-75
2023/02/01 04:48:18;;;;;;;2.05;1.80;;;;;;;;;;5024856;28;20132;-75
2023/02/01 04:50:47;;;;;;;2.80;1.83;;;;;;;;;;5015954;28;20052;-74
2023/02/01 04:53:14;;;;;;;2.38;2.08;;;;;;;;;;4999608;28;20136;-75
2023/02/01 04:55:42;;;;;;;2.35;2.05;;;;;;;;;;5015483;28;20464;-74
2023/02/01 04:58:09;;;;;;;2.00;1.80;;;;;;;;;;5004159;28;20053;-75
2023/02/01 05:00:36;;;;;;;2.78;2.33;;;;;;;;;;4999321;28;20063;-74
2023/02/01 05:03:03;;;;;;;2.05;1.85;;;;;;;;;;4999422;28;20060;-75
2023/02/01 05:05:29;;;;;;;3.25;2.45;;;;;;;;;;4998914;28;20475;-75
2023/02/01 05:07:57;;;;;;;2.92;2.60;;;;;;;;;;4998645;28;20045;-75
2023/02/01 05:10:24;;;;;;;2.28;2.08;;;;;;;;;;4995789;28;20417;-74
2023/02/01 05:15:51;;;;;;;2.42;2.22;;;;;;;;;;4975327;28;20384;-75
2023/02/01 05:18:17;;;;;;;2.88;2.10;;;;;;;;;;5028374;28;20358;-75
2023/02/01 05:20:44;;;;;;;2.63;2.10;;;;;;;;;;5012089;28;20098;-75
2023/02/01 05:23:11;;;;;;;2.45;1.83;;;;;;;;;;5012582;28;20060;-75
2023/02/01 05:25:37;;;;;;;3.00;2.70;;;;;;;;;;5028237;28;20041;-75
2023/02/01 05:28:04;;;;;;;2.42;1.73;;;;;;;;;;5015308;28;20056;-75
2023/02/01 05:30:34;;;;;;;6.53;2.67;;;;;;;;;;5011621;28;20049;-75
2023/02/01 05:33:02;;;;;;;2.50;1.70;;;;;;;;;;5011559;28;20525;-75
2023/02/01 05:35:29;;;;;;;2.85;2.13;;;;;;;;;;5027776;28;20042;-75
2023/02/01 05:37:56;;;;;;;3.15;2.10;;;;;;;;;;5030773;28;20413;-75
2023/02/01 05:40:22;;;;;;;2.40;2.20;;;;;;;;;;4998972;28;20056;-75
2023/02/01 05:42:50;;;;;;;2.85;1.90;;;;;;;;;;4999020;28;20849;-75
2023/02/01 05:45:17;;;;;;;2.40;1.52;;;;;;;;;;4998784;28;20417;-75
2023/02/01 05:47:43;;;;;;;4.30;2.38;;;;;;;;;;5011068;28;20525;-75
2023/02/01 05:50:10;;;;;;;1.95;1.60;;;;;;;;;;4995474;28;20148;-75
2023/02/01 05:52:37;;;;;;;1.92;1.60;;;;;;;;;;4996627;28;20050;-75
2023/02/01 05:55:04;;;;;;;2.00;1.80;;;;;;;;;;5014254;28;20486;-75
2023/02/01 05:57:31;;;;;;;2.15;1.45;;;;;;;;;;5016274;28;20555;-75
2023/02/01 05:59:57;;;;;;;2.00;1.70;;;;;;;;;;5018141;28;20041;-75
2023/02/01 06:02:26;;;;;;;3.45;2.00;;;;;;;;;;5018933;28;20061;-75
2023/02/01 06:04:53;;;;;;;1.75;1.60;;;;;;;;;;5002772;28;20088;-77
2023/02/01 06:07:23;;;;;;;3.85;1.48;;;;;;;;;;5030140;28;20048;-77
2023/02/01 06:09:50;;;;;;;2.63;1.60;;;;;;;;;;5052387;28;20092;-75
2023/02/01 06:12:17;;;;;;;3.80;1.73;;;;;;;;;;5009909;28;20063;-76
2023/02/01 06:14:45;;;;;;;2.70;1.50;;;;;;;;;;5014886;28;20413;-76
2023/02/01 06:17:11;;;;;;;2.80;1.52;;;;;;;;;;4998797;28;20525;-76
2023/02/01 06:19:40;;;;;;;2.65;1.90;;;;;;;;;;4998842;28;20448;-76
2023/02/01 06:22:07;;;;;;;2.10;1.67;;;;;;;;;;5014772;28;20054;-75
2023/02/01 06:24:34;;;;;;;2.55;1.98;;;;;;;;;;5007038;28;20053;-75
2023/02/01 06:27:00;;;;;;;2.53;2.03;;;;;;;;;;5014598;28;20049;-75
2023/02/01 06:29:27;;;;;;;3.78;1.48;;;;;;;;;;5014338;28;20057;-76
2023/02/01 06:31:54;;;;;;;2.17;2.00;;;;;;;;;;5031576;28;20053;-76
2023/02/01 06:34:22;;;;;;;2.72;2.35;;;;;;;;;;4998470;28;20501;-76
2023/02/01 06:36:50;;;;;;;3.38;2.40;;;;;;;;;;4998756;28;20505;-79
2023/02/01 06:39:16;;;;;;;3.40;2.45;;;;;;;;;;4983599;28;20494;-77
2023/02/01 06:41:47;;;;;;;2.90;2.17;;;;;;;;;;5002236;28;20053;-76
2023/02/01 06:44:15;;;;;;;2.63;1.90;;;;;;;;;;5019496;28;20059;-77
2023/02/01 06:46:41;;;;;;;2.25;1.50;;;;;;;;;;5002745;28;20040;-77
2023/02/01 06:49:08;;;;;;;1.75;1.45;;;;;;;;;;5017503;28;20056;-76
2023/02/01 06:51:35;;;;;;;3.05;1.77;;;;;;;;;;5033571;28;20056;-75
2023/02/01 06:54:02;;;;;;;6.68;2.10;;;;;;;;;;5016627;28;20061;-75
2023/02/01 06:56:31;;;;;;;2.67;1.90;;;;;;;;;;5032568;28;20055;-75
2023/02/01 06:58:58;;;;;;;2.10;1.75;;;;;;;;;;4999724;28;20045;-76
2023/02/01 07:01:24;;;;;;;8.10;2.00;;;;;;;;;;5050034;28;20080;-76
2023/02/01 07:03:51;;;;;;;2.28;1.65;;;;;;;;;;5016419;28;20052;-76
2023/02/01 07:06:18;;;;;;;6.00;2.50;;;;;;;;;;5016477;28;20045;-76
2023/02/01 07:08:45;;;;;;;6.53;2.90;;;;;;;;;;5016366;28;20064;-76
2023/02/01 07:11:13;;;;;;;3.53;2.17;;;;;;;;;;5017036;28;20053;-76
2023/02/01 07:13:40;;;;;;;3.85;2.30;;;;;;;;;;5017342;28;20053;-76
2023/02/01 07:16:09;;;;;;;5.85;2.20;;;;;;;;;;5000889;28;20041;-75
2023/02/01 07:18:36;;;;;;;6.07;3.55;;;;;;;;;;5001093;28;20049;-76
2023/02/01 07:21:03;;;;;;;6.60;3.58;;;;;;;;;;5008116;28;20505;-75
2023/02/01 07:23:29;;;;;;;10.02;3.95;;;;;;;;;;5001400;28;20049;-75
2023/02/01 07:25:58;;;;;;;16.88;6.60;;;;;;;;;;5000972;28;20045;-75
2023/02/01 07:28:25;;;;;;;15.27;5.38;;;;;;;;;;5001186;28;20053;-75
2023/02/01 07:30:52;;;;;;;7.20;3.97;;;;;;;;;;5000128;28;20053;-76
2023/02/01 07:33:20;;;;;;;7.47;3.05;;;;;;;;;;5000742;28;20132;-75
2023/02/01 07:35:48;;;;;;;6.55;4.18;;;;;;;;;;5000960;28;20502;-75
2023/02/01 07:38:15;;;;;;;7.28;2.97;;;;;;;;;;5000765;28;20053;-74
2023/02/01 07:40:42;;;;;;;6.18;2.50;;;;;;;;;;5000329;28;20053;-76
2023/02/01 07:43:09;;;;;;;6.70;3.00;;;;;;;;;;5000462;28;20497;-76
2023/02/01 07:45:36;;;;;;;5.18;2.63;;;;;;;;;;5000632;28;20063;-76
2023/02/01 07:48:03;;;;;;;7.60;2.53;;;;;;;;;;5000149;28;20570;-75
2023/02/01 07:50:30;;;;;;;6.15;3.58;;;;;;;;;;5013004;28;20832;-75
2023/02/01 07:53:00;;;;;;;7.95;3.03;;;;;;;;;;5013111;28;20403;-75
2023/02/01 07:55:28;;;;;;;16.45;5.20;;;;;;;;;;4980662;28;20538;-75
2023/02/01 07:57:57;;;;;;;13.45;4.93;;;;;;;;;;4980537;28;20505;-75
2023/02/01 08:03:10;;;;;;;7.63;3.50;;;;;;;;;;5015644;28;20057;-75
2023/02/01 08:05:37;;;;;;;11.02;2.95;;;;;;;;;;5012704;28;20532;-76
2023/02/01 08:08:04;;;;;;;7.50;3.08;;;;;;;;;;5012778;28;20046;-76
2023/02/01 08:10:31;;;;;;;7.10;2.50;;;;;;;;;;4996995;28;20136;-76
2023/02/01 08:12:59;;;;;;;10.32;3.42;;;;;;;;;;4997701;28;20473;-76
2023/02/01 08:15:27;;;;;;;6.85;2.50;;;;;;;;;;5017812;28;20351;-77
2023/02/01 08:17:54;;;;;;;11.88;4.68;;;;;;;;;;5002945;28;20179;-76
2023/02/01 08:20:25;;;;;;;12.93;4.38;;;;;;;;;;5001267;28;20045;-77
2023/02/01 08:22:53;;;;;;;9.50;3.78;;;;;;;;;;5019990;28;20133;-78
2023/02/01 08:25:20;;;;;;;10.65;2.53;;;;;;;;;;5034245;28;20060;-78
2023/02/01 08:27:47;;;;;;;8.13;2.60;;;;;;;;;;5000173;28;20513;-77
2023/02/01 08:30:14;;;;;;;10.68;2.65;;;;;;;;;;5017504;28;20488;-78
2023/02/01 08:32:41;;;;;;;6.15;2.40;;;;;;;;;;5001678;28;20060;-77
2023/02/01 08:35:08;;;;;;;7.55;2.30;;;;;;;;;;5001337;28;20048;-77
2023/02/01 08:37:36;;;;;;;10.93;3.15;;;;;;;;;;5001639;28;20049;-77
2023/02/01 08:40:04;;;;;;;8.45;3.03;;;;;;;;;;5018056;28;20056;-76
2023/02/01 08:45:18;;;;;;;11.13;2.30;;;;;;;;;;5021811;28;20049;-77
2023/02/01 08:47:46;;;;;;;9.32;2.70;;;;;;;;;;5016467;28;20052;-77
2023/02/01 08:50:14;;;;;;;7.13;2.30;;;;;;;;;;5016203;28;20154;-77
2023/02/01 08:52:41;;;;;;;6.93;2.20;;;;;;;;;;4999754;28;20064;-76
2023/02/01 08:55:08;;;;;;;8.27;2.60;;;;;;;;;;5001932;28;20064;-77
2023/02/01 08:57:35;;;;;;;5.97;3.47;;;;;;;;;;5020129;28;20055;-78
2023/02/01 09:00:03;;;;;;;8.73;2.97;;;;;;;;;;5001719;28;20049;-77
2023/02/01 09:02:30;;;;;;;6.55;2.38;;;;;;;;;;4999103;28;20063;-78
2023/02/01 09:04:57;;;;;;;5.85;1.90;;;;;;;;;;4983446;28;20120;-77
2023/02/01 09:07:26;;;;;;;6.50;2.53;;;;;;;;;;4984775;28;20054;-78
2023/02/01 09:09:54;;;;;;;8.43;2.40;;;;;;;;;;4981321;28;20076;-76
2023/02/01 09:12:21;;;;;;;9.95;2.28;;;;;;;;;;4997463;28;20060;-76
2023/02/01 09:14:47;;;;;;;6.88;2.40;;;;;;;;;;5013972;28;20129;-77
2023/02/01 09:17:14;;;;;;;13.40;2.80;;;;;;;;;;5000257;28;20059;-77
2023/02/01 09:19:41;;;;;;;8.93;2.60;;;;;;;;;;5014771;28;20053;-77
2023/02/01 09:22:08;;;;;;;8.65;2.42;;;;;;;;;;5028384;28;20049;-77
2023/02/01 09:24:35;;;;;;;7.63;2.65;;;;;;;;;;5017875;28;20602;-77
2023/02/01 09:27:02;;;;;;;7.93;2.28;;;;;;;;;;4999935;28;20055;-75
2023/02/01 09:29:29;;;;;;;6.68;2.08;;;;;;;;;;4998210;28;20064;-76
2023/02/01 09:31:59;;;;;;;10.48;2.90;;;;;;;;;;5002017;28;20056;-74
2023/02/01 09:34:30;;;;;;;8.70;2.90;;;;;;;;;;5019399;28;20044;-75
2023/02/01 09:36:57;;;;;;;10.00;2.42;;;;;;;;;;5001769;28;20394;-77
2023/02/01 09:39:24;;;;;;;5.82;2.28;;;;;;;;;;5001900;28;20064;-77
2023/02/01 09:41:59;;;;;;;10.43;2.88;;;;;;;;;;5002741;28;20416;-76
2023/02/01 09:44:51;;;;;;;9.90;3.63;;;;;;;;;;5015707;28;20080;-76
2023/02/01 09:47:20;;;;;;;9.73;2.58;;;;;;;;;;5037774;28;20045;-76
2023/02/01 09:50:05;;;;;;;10.05;2.42;;;;;;;;;;5014336;28;20052;-76
2023/02/01 09:52:41;;;;;;;10.50;2.80;;;;;;;;;;5036551;28;20056;-76
2023/02/01 09:55:39;;;;;;;10.73;2.33;;;;;;;;;;5023107;28;20046;-76
2023/02/01 09:58:10;;;;;;;13.07;3.55;;;;;;;;;;5007785;28;20056;-76
2023/02/01 10:00:39;;;;;;;14.02;2.90;;;;;;;;;;5020914;28;20045;-76
2023/02/01 10:03:11;;;;;;;8.02;2.33;;;;;;;;;;5002541;28;20541;-76
2023/02/01 10:06:00;;;;;;;7.73;2.00;;;;;;;;;;4999048;28;20421;-76
2023/02/01 10:08:27;;;;;;;4.68;1.70;;;;;;;;;;5020365;28;20056;-77
2023/02/01 10:10:56;;;;;;;10.27;2.80;;;;;;;;;;5044935;28;20048;-77
2023/02/01 10:13:35;;;;;;;9.57;2.17;;;;;;;;;;4989807;28;20052;-77
2023/02/01 10:16:07;;;;;;;8.68;2.33;;;;;;;;;;5031914;28;20041;-77
2023/02/01 10:19:01;;;;;;;12.38;3.25;;;;;;;;;;5024679;28;20049;-77
2023/02/01 10:21:38;;;;;;;7.38;2.63;;;;;;;;;;5039748;28;20060;-76
2023/02/01 10:24:08;;;;;;;12.43;2.58;;;;;;;;;;5033137;28;20087;-76
2023/02/01 10:27:07;;;;;;;10.13;2.20;;;;;;;;;;5042426;28;20497;-77
2023/02/01 10:29:38;;;;;;;10.50;2.22;;;;;;;;;;5025309;28;20132;-77
2023/02/01 10:32:16;;;;;;;9.57;2.58;;;;;;;;;;4992003;28;20054;-77
2023/02/01 10:34:46;;;;;;;11.00;1.77;;;;;;;;;;5007924;28;20060;-76
2023/02/01 10:37:32;;;;;;;9.95;2.33;;;;;;;;;;5007969;28;20053;-76
2023/02/01 10:40:12;;;;;;;11.38;2.50;;;;;;;;;;5031860;28;20080;-77
2023/02/01 10:42:39;;;;;;;8.68;2.22;;;;;;;;;;4988710;28;20065;-76
2023/02/01 10:45:11;;;;;;;13.15;2.55;;;;;;;;;;5005068;28;20555;-76
2023/02/01 10:47:38;;;;;;;8.73;2.15;;;;;;;;;;5003710;28;20259;-76
2023/02/01 10:50:09;;;;;;;14.32;2.60;;;;;;;;;;5014450;28;20045;-78
2023/02/01 10:52:45;;;;;;;11.00;2.08;;;;;;;;;;5038484;28;20097;-77
2023/02/01 10:55:40;;;;;;;12.45;2.33;;;;;;;;;;5023902;28;20458;-76
2023/02/01 10:58:18;;;;;;;13.25;2.95;;;;;;;;;;5022157;28;20502;-77
2023/02/01 11:00:57;;;;;;;9.38;2.47;;;;;;;;;;5032028;28;20061;-77
2023/02/01 11:03:33;;;;;;;6.60;1.90;;;;;;;;;;5016225;28;20584;-76
2023/02/01 11:06:01;;;;;;;13.10;2.28;;;;;;;;;;5023982;28;20470;-76
2023/02/01 11:08:28;;;;;;;7.20;2.55;;;;;;;;;;5022851;28;20049;-76
2023/02/01 11:11:02;;;;;;;10.23;2.92;;;;;;;;;;5014121;28;20065;-77
2023/02/01 11:13:31;;;;;;;10.73;2.33;;;;;;;;;;5016586;28;20059;-77
2023/02/01 11:15:58;;;;;;;7.82;1.77;;;;;;;;;;5031800;28;20057;-76
2023/02/01 11:18:28;;;;;;;8.88;2.28;;;;;;;;;;4992476;28;20045;-77
2023/02/01 11:20:55;;;;;;;7.45;2.17;;;;;;;;;;5013770;28;20053;-77
2023/02/01 11:23:27;;;;;;;14.52;3.20;;;;;;;;;;5013201;28;20382;-77
2023/02/01 11:25:58;;;;;;;12.57;2.10;;;;;;;;;;4993955;28;20451;-77
2023/02/01 11:28:26;;;;;;;13.55;3.55;;;;;;;;;;5020460;28;20517;-77
2023/02/01 11:30:55;;;;;;;8.75;2.65;;;;;;;;;;5022310;28;20044;-77
2023/02/01 11:33:27;;;;;;;7.32;2.22;;;;;;;;;;5015135;28;20421;-77
2023/02/01 11:35:54;;;;;;;14.35;3.30;;;;;;;;;;4987863;28;20521;-77
2023/02/01 11:38:30;;;;;;;13.95;3.22;;;;;;;;;;4988534;28;20045;-76
2023/02/01 11:41:24;;;;;;;19.08;4.80;;;;;;;;;;5037961;28;20140;-77
2023/02/01 11:44:01;;;;;;;11.70;3.83;;;;;;;;;;5033858;28;20059;-76
2023/02/01 11:46:30;;;;;;;12.23;2.50;;;;;;;;;;5025495;28;20505;-77
2023/02/01 11:49:15;;;;;;;10.43;3.15;;;;;;;;;;5005034;28;20516;-77
2023/02/01 11:51:52;;;;;;;14.95;2.92;;;;;;;;;;5011949;28;20045;-77
2023/02/01 11:54:35;;;;;;;13.60;2.38;;;;;;;;;;5011293;28;20056;-77
2023/02/01 11:57:10;;;;;;;9.73;2.30;;;;;;;;;;5021555;28;20413;-76
2023/02/01 11:59:52;;;;;;;8.60;1.92;;;;;;;;;;5021833;28;20480;-76
2023/02/01 12:02:36;;;;;;;11.07;2.13;;;;;;;;;;5040246;28;20519;-76
2023/02/01 12:05:26;;;;;;;6.90;1.90;;;;;;;;;;5023841;28;20053;-76
2023/02/01 12:08:05;;;;;;;5.68;1.52;;;;;;;;;;5017816;28;20045;-76
2023/02/01 12:10:54;;;;;;;12.07;2.78;;;;;;;;;;5039121;28;20049;-75
2023/02/01 12:13:33;;;;;;;9.48;2.35;;;;;;;;;;5013510;28;20179;-76
2023/02/01 12:16:14;;;;;;;15.32;3.67;;;;;;;;;;5038385;28;20053;-77
2023/02/01 12:18:54;;;;;;;8.13;2.10;;;;;;;;;;5021747;28;20124;-75
2023/02/01 12:21:48;;;;;;;9.43;2.40;;;;;;;;;;5035316;28;20524;-77
2023/02/01 12:24:41;;;;;;;4.80;1.98;;;;;;;;;;5005641;28;20607;-77
2023/02/01 12:27:26;;;;;;;9.25;2.58;;;;;;;;;;4995714;28;20045;-78
2023/02/01 12:30:21;;;;;;;6.60;2.13;;;;;;;;;;5039245;28;20117;-77
2023/02/01 12:33:05;;;;;;;9.25;2.40;;;;;;;;;;5037757;28;20046;-77
2023/02/01 12:35:44;;;;;;;15.30;2.33;;;;;;;;;;5000913;28;20493;-77
2023/02/01 12:38:34;;;;;;;9.05;1.48;;;;;;;;;;5038974;28;20049;-77
2023/02/01 12:41:24;;;;;;;11.82;2.28;;;;;;;;;;5024098;28;20045;-77
2023/02/01 12:44:00;;;;;;;9.52;2.45;;;;;;;;;;5019976;28;20050;-77
2023/02/01 12:46:32;;;;;;;12.15;2.90;;;;;;;;;;5028798;28;20044;-77
2023/02/01 12:49:03;;;;;;;13.38;4.35;;;;;;;;;;5015166;28;20048;-78
2023/02/01 12:51:34;;;;;;;8.32;3.00;;;;;;;;;;5006880;28;21183;-78
2023/02/01 12:54:06;;;;;;;11.02;3.42;;;;;;;;;;5009765;28;20413;-78
2023/02/01 12:56:46;;;;;;;13.07;3.90;;;;;;;;;;5033848;28;20060;-77
2023/02/01 12:59:36;;;;;;;7.75;2.00;;;;;;;;;;5015320;28;20044;-77
2023/02/01 13:02:24;;;;;;;11.20;2.20;;;;;;;;;;5022271;28;20061;-78
2023/02/01 13:05:16;;;;;;;11.27;3.22;;;;;;;;;;5038885;28;20555;-77
2023/02/01 13:07:53;;;;;;;8.77;2.17;;;;;;;;;;5027542;28;20502;-77
2023/02/01 13:11:01;;;;;;;13.38;2.38;;;;;;;;;;5044600;28;20401;-77
2023/02/01 13:13:40;;;;;;;11.13;2.00;;;;;;;;;;5029623;28;20080;-77
2023/02/01 13:16:12;;;;;;;11.50;1.80;;;;;;;;;;5022790;28;20068;-78
2023/02/01 13:18:42;;;;;;;6.10;2.08;;;;;;;;;;5027748;28;20150;-78
2023/02/01 13:21:34;;;;;;;10.00;2.10;;;;;;;;;;5024018;28;20059;-78
2023/02/01 13:24:01;;;;;;;10.25;2.35;;;;;;;;;;5011095;28;20108;-78
2023/02/01 13:26:29;;;;;;;10.13;2.58;;;;;;;;;;5019688;28;20549;-77
2023/02/01 13:29:05;;;;;;;14.43;3.20;;;;;;;;;;5031709;28;20053;-77
2023/02/01 13:31:50;;;;;;;12.25;2.67;;;;;;;;;;5001236;28;20064;-77
2023/02/01 13:34:54;;;;;;;8.82;2.30;;;;;;;;;;5052145;28;20045;-78
2023/02/01 13:37:29;;;;;;;6.65;2.70;;;;;;;;;;5046956;28;20068;-78
2023/02/01 13:40:10;;;;;;;8.35;3.03;;;;;;;;;;5039439;28;20056;-77
2023/02/01 13:42:47;;;;;;;10.50;2.17;;;;;;;;;;5021991;28;20056;-77
2023/02/01 13:45:20;;;;;;;7.13;1.98;;;;;;;;;;5006271;28;20059;-78
2023/02/01 13:47:52;;;;;;;7.32;2.10;;;;;;;;;;5023768;28;20095;-78
2023/02/01 13:50:41;;;;;;;5.45;1.85;;;;;;;;;;5003730;28;20469;-77
2023/02/01 13:53:11;;;;;;;8.90;2.13;;;;;;;;;;5030005;28;20224;-76
2023/02/01 13:55:43;;;;;;;5.07;1.50;;;;;;;;;;5045203;28;20471;-76
2023/02/01 13:58:22;;;;;;;6.80;1.98;;;;;;;;;;5027962;28;20053;-77
2023/02/01 14:00:53;;;;;;;13.07;2.58;;;;;;;;;;5029340;28;20597;-77
2023/02/01 14:03:57;;;;;;;8.50;1.83;;;;;;;;;;5014135;28;20044;-77
2023/02/01 14:06:27;;;;;;;6.00;1.50;;;;;;;;;;5042798;28;20045;-77
2023/02/01 14:09:09;;;;;;;13.32;2.00;;;;;;;;;;5018308;28;20080;-77
2023/02/01 14:11:44;;;;;;;11.65;1.75;;;;;;;;;;5046293;28;20452;-77
2023/02/01 14:14:17;;;;;;;8.75;1.80;;;;;;;;;;5022427;28;20361;-77
2023/02/01 14:16:53;;;;;;;5.50;1.80;;;;;;;;;;5046020;28;20060;-77
2023/02/01 14:19:25;;;;;;;9.40;2.05;;;;;;;;;;5037931;28;20446;-77
2023/02/01 14:21:58;;;;;;;11.05;3.10;;;;;;;;;;5024937;28;20056;-77
2023/02/01 14:24:37;;;;;;;13.52;3.05;;;;;;;;;;5018097;28;20053;-77
2023/02/01 14:27:13;;;;;;;12.10;2.42;;;;;;;;;;5044091;28;20037;-77
2023/02/01 14:29:44;;;;;;;11.95;2.25;;;;;;;;;;5022553;28;20042;-76
2023/02/01 14:32:19;;;;;;;14.20;2.30;;;;;;;;;;5015848;28;20049;-78
2023/02/01 14:34:45;;;;;;;7.97;2.00;;;;;;;;;;5021883;28;20567;-77
2023/02/01 14:37:18;;;;;;;9.95;2.03;;;;;;;;;;5038614;28;20512;-77
2023/02/01 14:39:45;;;;;;;11.63;2.60;;;;;;;;;;5030240;28;20053;-76
2023/02/01 14:42:15;;;;;;;9.27;2.08;;;;;;;;;;5033091;28;20068;-79
2023/02/01 14:44:42;;;;;;;8.88;2.28;;;;;;;;;;5044856;28;20052;-78
2023/02/01 14:47:27;;;;;;;6.80;2.00;;;;;;;;;;5019413;28;20053;-79
2023/02/01 14:49:59;;;;;;;8.43;2.10;;;;;;;;;;5045230;28;20048;-79
2023/02/01 14:52:35;;;;;;;14.35;3.25;;;;;;;;;;5040597;28;20506;-78
2023/02/01 14:55:08;;;;;;;5.32;1.67;;;;;;;;;;5017682;28;20068;-78
2023/02/01 14:57:37;;;;;;;12.27;2.00;;;;;;;;;;5022213;28;20061;-78
2023/02/01 15:00:23;;;;;;;7.75;1.83;;;;;;;;;;5015724;28;20072;-78
2023/02/01 15:02:50;;;;;;;10.80;2.42;;;;;;;;;;5024593;28;20535;-77
2023/02/01 15:05:33;;;;;;;10.05;2.33;;;;;;;;;;4989554;28;20053;-77
2023/02/01 15:08:13;;;;;;;10.10;1.95;;;;;;;;;;5032440;28;20150;-76
2023/02/01 15:10:44;;;;;;;10.23;2.67;;;;;;;;;;4995040;28;20492;-77
2023/02/01 15:13:25;;;;;;;10.95;2.45;;;;;;;;;;4988177;28;20068;-77
2023/02/01 15:16:12;;;;;;;13.90;2.50;;;;;;;;;;5029866;28;20155;-77
2023/02/01 15:18:39;;;;;;;11.43;2.85;;;;;;;;;;5022767;28;20124;-77
2023/02/01 15:21:12;;;;;;;10.68;2.55;;;;;;;;;;4992755;28;20045;-78
2023/02/01 15:24:13;;;;;;;10.95;2.15;;;;;;;;;;5016937;28;20536;-77
2023/02/01 15:26:40;;;;;;;9.20;2.30;;;;;;;;;;4991477;28;20064;-77
2023/02/01 15:29:16;;;;;;;12.27;2.72;;;;;;;;;;5007381;28;20490;-77
2023/02/01 15:31:45;;;;;;;12.15;3.47;;;;;;;;;;5022451;28;20498;-78
2023/02/01 15:34:12;;;;;;;9.13;2.20;;;;;;;;;;5006126;28;20072;-77
2023/02/01 15:36:43;;;;;;;7.82;2.20;;;;;;;;;;4991473;28;20060;-77
2023/02/01 15:39:29;;;;;;;11.27;3.42;;;;;;;;;;5016304;28;20099;-77
2023/02/01 15:42:19;;;;;;;10.63;2.03;;;;;;;;;;4987081;28;20505;-77